Terminal Aerodrome Forecast
Issued by NWS

Current Version | Previous Version | Graphics & Text | Print | Product List | Glossary On
Versions: 1 2 3 4 5 6 7 8 9 10 11 12 13 14 15 16 17 18 19 20
000
FTUS41 KILN 211700
TAFLCK
TAF
KLCK 211730Z 2118/2218 VRB05KT P6SM SKC
     FM220000 15005KT P6SM SCT250
     FM221000 17005KT P6SM OVC060
      TEMPO 2211/2214 -FZRA OVC050
     FM221400 19010KT P6SM VCSH OVC060=

USA.gov is the U.S. government's official web portal to all federal, state and local government web resources and services.